Time;durP1;ratioP1;P1;durP2;ratioP2;P2;SDS_P1;SDS_P2;PMS_P1;PMS_P2;Temp;Humidity;BMP_temperature;BMP_pressure;BME280_temperature;BME280_humidity;BME280_pressure;Samples;Min_cycle;Max_cycle;Signal;HPM_P1;HPM_P2
2024/03/25 00:01:08;;;;;;;0.50;0.50;;;;;;;4.42;95.41;98500.19;5051831;28;20805;-58
2024/03/25 00:03:35;;;;;;;0.47;0.47;;;;;;;4.41;95.24;98507.34;5044939;28;20403;-58
2024/03/25 00:06:01;;;;;;;0.40;0.40;;;;;;;4.37;95.46;98503.53;5048033;28;20123;-58
2024/03/25 00:08:28;;;;;;;0.50;0.50;;;;;;;4.33;96.17;98508.47;5054825;28;20244;-58
2024/03/25 00:10:55;;;;;;;0.50;0.50;;;;;;;4.39;95.03;98516.56;5055736;28;20566;-58
2024/03/25 00:13:24;;;;;;;0.50;0.50;;;;;;;4.48;95.09;98529.34;5046146;28;20045;-58
2024/03/25 00:15:50;;;;;;;0.30;0.30;;;;;;;4.38;95.67;98523.72;5048204;28;20041;-58
2024/03/25 00:18:17;;;;;;;0.50;0.50;;;;;;;4.38;95.56;98521.06;5051493;28;20057;-58
2024/03/25 00:20:43;;;;;;;0.40;0.40;;;;;;;4.35;95.86;98521.50;5049363;28;20044;-59
2024/03/25 00:23:11;;;;;;;0.30;0.30;;;;;;;4.28;98.07;98526.06;5046122;28;20621;-57
2024/03/25 00:25:37;;;;;;;0.45;0.45;;;;;;;4.36;97.13;98519.66;5041775;28;20045;-57
2024/03/25 00:28:06;;;;;;;0.45;0.45;;;;;;;4.43;97.52;98523.88;5051575;28;20056;-58
2024/03/25 00:30:34;;;;;;;0.50;0.50;;;;;;;4.36;97.17;98525.78;5046558;28;20045;-58
2024/03/25 00:33:01;;;;;;;0.50;0.50;;;;;;;4.34;97.39;98519.88;5048690;28;20076;-58
2024/03/25 00:35:27;;;;;;;0.40;0.40;;;;;;;4.41;96.96;98520.63;5051641;28;20048;-58
2024/03/25 00:37:54;;;;;;;0.50;0.50;;;;;;;4.52;97.81;98519.91;5046573;28;20064;-57
2024/03/25 00:40:20;;;;;;;0.50;0.50;;;;;;;4.47;98.36;98509.16;5050655;28;20120;-57
2024/03/25 00:42:48;;;;;;;0.50;0.50;;;;;;;4.48;97.45;98513.41;5076562;28;20415;-59
2024/03/25 00:45:14;;;;;;;0.40;0.40;;;;;;;4.57;95.90;98511.28;5040491;28;20056;-58
2024/03/25 00:47:42;;;;;;;0.60;0.60;;;;;;;4.66;97.66;98506.47;5043349;28;20060;-59
2024/03/25 00:50:09;;;;;;;0.50;0.50;;;;;;;4.68;94.06;98509.72;5051649;28;20033;-58
2024/03/25 00:52:36;;;;;;;0.55;0.55;;;;;;;4.58;93.98;98509.44;5045521;28;20148;-58
2024/03/25 00:55:02;;;;;;;0.40;0.40;;;;;;;4.44;93.98;98506.09;5049244;28;20049;-58
2024/03/25 00:57:30;;;;;;;0.52;0.52;;;;;;;4.43;93.54;98509.81;5048836;28;20136;-58
2024/03/25 00:59:56;;;;;;;0.47;0.47;;;;;;;4.30;95.18;98508.91;5054758;28;20055;-58
2024/03/25 01:02:23;;;;;;;0.52;0.52;;;;;;;4.24;96.03;98504.50;5046076;28;20045;-58
2024/03/25 01:04:51;;;;;;;0.40;0.40;;;;;;;4.30;95.45;98503.59;5048715;28;20119;-58
2024/03/25 01:07:18;;;;;;;0.35;0.35;;;;;;;4.23;96.02;98502.03;5060557;28;20043;-58
2024/03/25 01:09:44;;;;;;;0.50;0.50;;;;;;;4.16;96.19;98502.09;5042895;28;20187;-58
2024/03/25 01:12:11;;;;;;;0.50;0.50;;;;;;;4.15;96.76;98499.69;5051074;28;20147;-58
2024/03/25 01:14:37;;;;;;;0.50;0.50;;;;;;;4.09;97.07;98502.19;5053247;28;20715;-58
2024/03/25 01:17:04;;;;;;;0.50;0.50;;;;;;;3.98;97.76;98500.22;5048981;28;20165;-58
2024/03/25 01:19:30;;;;;;;0.43;0.43;;;;;;;3.91;98.11;98496.00;5053668;28;20056;-59
2024/03/25 01:21:58;;;;;;;0.60;0.60;;;;;;;3.85;97.97;98500.34;5047215;28;20732;-58
2024/03/25 01:24:25;;;;;;;0.52;0.52;;;;;;;3.90;97.75;98495.19;5052120;28;20616;-58
2024/03/25 01:26:52;;;;;;;0.57;0.57;;;;;;;3.77;98.40;98504.06;5050365;28;20056;-58
2024/03/25 01:29:18;;;;;;;0.50;0.50;;;;;;;3.82;97.52;98498.09;5045889;28;20090;-58
2024/03/25 01:31:45;;;;;;;0.50;0.50;;;;;;;3.74;97.90;98493.09;5053604;28;20085;-58
2024/03/25 01:34:11;;;;;;;0.50;0.50;;;;;;;3.88;98.01;98497.25;5046669;28;20063;-58
2024/03/25 01:36:39;;;;;;;0.50;0.50;;;;;;;3.78;96.70;98502.22;5049022;28;20048;-58
2024/03/25 01:39:06;;;;;;;0.50;0.50;;;;;;;3.81;96.91;98502.59;5048524;28;20049;-57
2024/03/25 01:41:34;;;;;;;0.50;0.50;;;;;;;3.73;97.53;98500.22;5049442;28;20051;-59
2024/03/25 01:44:00;;;;;;;0.47;0.47;;;;;;;3.69;97.31;98501.66;5054369;28;20048;-58
2024/03/25 01:46:27;;;;;;;0.50;0.50;;;;;;;3.68;97.48;98487.63;5055914;28;20403;-58
2024/03/25 01:48:53;;;;;;;0.50;0.50;;;;;;;3.69;97.35;98491.06;5052877;28;20052;-58
2024/03/25 01:51:21;;;;;;;0.60;0.60;;;;;;;3.75;97.41;98494.72;5051739;28;20045;-58
2024/03/25 01:53:47;;;;;;;0.45;0.45;;;;;;;3.74;98.18;98493.09;5050592;28;20044;-59
2024/03/25 01:56:16;;;;;;;0.50;0.50;;;;;;;3.65;99.02;98496.00;5053372;28;20440;-58
2024/03/25 01:58:42;;;;;;;0.40;0.40;;;;;;;3.56;100.00;98496.47;5054371;28;20076;-58
2024/03/25 02:01:13;;;;;;;0.40;0.40;;;;;;;3.46;100.00;98497.75;5058096;28;20094;-58
2024/03/25 02:03:39;;;;;;;0.50;0.50;;;;;;;3.37;100.00;98503.53;5053250;28;20045;-58
2024/03/25 02:06:08;;;;;;;0.50;0.50;;;;;;;3.40;100.00;98497.81;5052175;28;20041;-58
2024/03/25 02:08:34;;;;;;;0.60;0.60;;;;;;;3.45;100.00;98509.38;5050314;28;20759;-58
2024/03/25 02:11:03;;;;;;;0.55;0.55;;;;;;;3.44;100.00;98509.59;5050955;28;20041;-58
2024/03/25 02:13:30;;;;;;;0.47;0.47;;;;;;;3.37;100.00;98508.81;5053386;28;20135;-57
2024/03/25 02:15:57;;;;;;;0.40;0.40;;;;;;;3.36;100.00;98499.25;5054383;28;20067;-58
2024/03/25 02:18:23;;;;;;;0.50;0.50;;;;;;;3.33;100.00;98513.75;5052156;28;20113;-58
2024/03/25 02:20:50;;;;;;;0.52;0.52;;;;;;;3.29;100.00;98504.59;5046878;28;20045;-58
2024/03/25 02:23:16;;;;;;;0.50;0.50;;;;;;;3.28;100.00;98504.81;5050928;28;20049;-58
2024/03/25 02:25:44;;;;;;;0.60;0.60;;;;;;;3.22;100.00;98507.28;5051521;28;20573;-58
2024/03/25 02:28:12;;;;;;;0.50;0.50;;;;;;;3.24;100.00;98499.13;5055695;28;20549;-58
2024/03/25 02:30:40;;;;;;;0.50;0.50;;;;;;;3.17;100.00;98493.88;5051796;28;20167;-58
2024/03/25 02:33:06;;;;;;;0.50;0.50;;;;;;;3.00;100.00;98498.03;5047851;28;20641;-58
2024/03/25 02:35:33;;;;;;;0.60;0.60;;;;;;;2.77;100.00;98504.66;5054025;28;20048;-57
2024/03/25 02:37:59;;;;;;;0.60;0.60;;;;;;;2.20;100.00;98497.47;5048658;28;20048;-58
2024/03/25 02:40:27;;;;;;;0.60;0.60;;;;;;;1.99;100.00;98495.88;5054073;28;20490;-57
2024/03/25 02:42:53;;;;;;;0.57;0.57;;;;;;;1.92;100.00;98506.44;5046566;28;20491;-58
2024/03/25 02:45:21;;;;;;;0.50;0.50;;;;;;;1.92;100.00;98504.63;5052090;28;20127;-58
2024/03/25 02:47:47;;;;;;;0.65;0.65;;;;;;;1.91;100.00;98510.13;5055295;28;20044;-58
2024/03/25 02:50:14;;;;;;;0.55;0.55;;;;;;;1.88;100.00;98511.34;5050742;28;20080;-57
2024/03/25 02:52:40;;;;;;;0.50;0.50;;;;;;;2.04;100.00;98501.38;5055265;28;20398;-58
2024/03/25 02:55:08;;;;;;;0.60;0.60;;;;;;;2.21;100.00;98505.22;5053796;28;20506;-57
2024/03/25 02:57:34;;;;;;;0.60;0.60;;;;;;;2.06;100.00;98507.25;5052097;28;20040;-58
2024/03/25 03:00:02;;;;;;;0.60;0.60;;;;;;;1.94;100.00;98510.50;5056546;28;20049;-58
2024/03/25 03:02:29;;;;;;;0.70;0.70;;;;;;;1.91;100.00;98510.94;5051604;28;20045;-58
2024/03/25 03:04:56;;;;;;;0.70;0.70;;;;;;;1.85;100.00;98517.03;5045458;28;20067;-58
2024/03/25 03:07:22;;;;;;;0.55;0.55;;;;;;;1.94;100.00;98515.00;5056236;28;20121;-58
2024/03/25 03:09:49;;;;;;;0.70;0.70;;;;;;;1.95;100.00;98511.34;5051105;28;20109;-58
2024/03/25 03:12:15;;;;;;;0.80;0.80;;;;;;;1.88;100.00;98510.53;5046319;28;20130;-58
2024/03/25 03:14:43;;;;;;;0.60;0.60;;;;;;;1.84;100.00;98509.31;5047772;28;20107;-58
2024/03/25 03:17:09;;;;;;;0.60;0.60;;;;;;;1.86;100.00;98505.44;5062819;28;20148;-57
2024/03/25 03:19:38;;;;;;;0.70;0.70;;;;;;;1.99;100.00;98517.03;5054761;28;20217;-58
2024/03/25 03:22:04;;;;;;;0.65;0.65;;;;;;;2.16;100.00;98508.47;5052692;28;20052;-58
2024/03/25 03:24:32;;;;;;;0.60;0.60;;;;;;;2.22;100.00;98500.72;5049897;28;20072;-57
2024/03/25 03:26:58;;;;;;;0.60;0.60;;;;;;;2.17;100.00;98503.97;5053581;28;20136;-57
2024/03/25 03:29:25;;;;;;;0.70;0.70;;;;;;;2.01;100.00;98505.22;5057529;28;20037;-58
2024/03/25 03:31:51;;;;;;;0.47;0.47;;;;;;;1.97;100.00;98497.91;5051518;28;20123;-57
2024/03/25 03:34:18;;;;;;;0.70;0.70;;;;;;;1.82;100.00;98504.25;5057121;28;20139;-57
2024/03/25 03:36:46;;;;;;;0.68;0.68;;;;;;;1.80;100.00;98506.28;5044055;28;20558;-58
2024/03/25 03:39:13;;;;;;;0.68;0.68;;;;;;;1.84;100.00;98499.53;5051254;28;20445;-58
2024/03/25 03:41:39;;;;;;;0.63;0.63;;;;;;;1.73;100.00;98497.53;5048441;28;20041;-57
2024/03/25 03:44:06;;;;;;;0.50;0.50;;;;;;;1.70;100.00;98506.66;5047289;28;20044;-58
2024/03/25 03:46:32;;;;;;;0.60;0.60;;;;;;;1.60;100.00;98505.41;5032141;28;20067;-58
2024/03/25 03:49:00;;;;;;;0.70;0.70;;;;;;;1.60;100.00;98508.91;5055757;28;20033;-58
2024/03/25 03:51:26;;;;;;;0.68;0.68;;;;;;;1.56;100.00;98506.84;5049915;28;20621;-58
2024/03/25 03:53:54;;;;;;;0.70;0.70;;;;;;;1.58;100.00;98502.19;5054190;28;20083;-58
2024/03/25 03:56:20;;;;;;;0.63;0.63;;;;;;;1.51;100.00;98496.91;5049807;28;20695;-56
2024/03/25 03:58:48;;;;;;;0.75;0.75;;;;;;;1.55;100.00;98499.94;5052993;28;20831;-58
2024/03/25 04:01:15;;;;;;;0.80;0.80;;;;;;;1.51;100.00;98500.34;5048757;28;20094;-58
2024/03/25 04:03:42;;;;;;;0.70;0.70;;;;;;;1.53;100.00;98502.78;5052032;28;20075;-57
2024/03/25 04:06:10;;;;;;;0.65;0.65;;;;;;;1.54;100.00;98503.59;5049909;28;20139;-58
2024/03/25 04:08:37;;;;;;;0.63;0.63;;;;;;;1.67;100.00;98508.88;5047268;28;20045;-58
2024/03/25 04:11:06;;;;;;;0.77;0.77;;;;;;;1.73;100.00;98508.09;5048563;28;20593;-58
2024/03/25 04:13:34;;;;;;;0.70;0.70;;;;;;;1.68;100.00;98506.06;5050812;28;20040;-57
2024/03/25 04:16:04;;;;;;;0.63;0.63;;;;;;;1.63;100.00;98507.69;5050918;28;20128;-58
2024/03/25 04:18:31;;;;;;;0.60;0.60;;;;;;;1.53;100.00;98502.00;5051496;28;20527;-57
2024/03/25 04:20:57;;;;;;;0.77;0.77;;;;;;;1.55;100.00;98499.94;5056025;28;20048;-58
2024/03/25 04:23:24;;;;;;;0.57;0.57;;;;;;;1.40;100.00;98503.59;5047397;28;20044;-57
2024/03/25 04:25:50;;;;;;;0.80;0.80;;;;;;;1.39;100.00;98507.22;5051725;28;20135;-57
2024/03/25 04:28:18;;;;;;;0.70;0.70;;;;;;;1.35;100.00;98499.91;5050886;28;20062;-58
2024/03/25 04:30:50;;;;;;;0.65;0.65;;;;;;;1.15;100.00;98505.16;5049769;28;20407;-58
2024/03/25 04:33:17;;;;;;;0.73;0.73;;;;;;;1.09;100.00;98504.13;5046176;28;20128;-58
2024/03/25 04:35:43;;;;;;;0.63;0.63;;;;;;;0.97;100.00;98508.34;5047987;28;20041;-58
